sensor_id;sensor_type;location;lat;lon;timestamp;P1;durP1;ratioP1;P2;durP2;ratioP2
44130;SDS011;29792;48.726;9.248;2024-01-11T00:01:57;41.38;;;22.27;;
44130;SDS011;29792;48.726;9.248;2024-01-11T00:04:22;36.33;;;21.27;;
44130;SDS011;29792;48.726;9.248;2024-01-11T00:06:47;44.72;;;24.73;;
44130;SDS011;29792;48.726;9.248;2024-01-11T00:09:12;43.60;;;23.48;;
44130;SDS011;29792;48.726;9.248;2024-01-11T00:11:38;46.13;;;23.52;;
44130;SDS011;29792;48.726;9.248;2024-01-11T00:14:03;40.65;;;21.83;;
44130;SDS011;29792;48.726;9.248;2024-01-11T00:16:28;38.72;;;21.60;;
44130;SDS011;29792;48.726;9.248;2024-01-11T00:18:53;40.13;;;23.67;;
44130;SDS011;29792;48.726;9.248;2024-01-11T00:21:19;42.47;;;23.95;;
44130;SDS011;29792;48.726;9.248;2024-01-11T00:23:44;41.85;;;23.20;;
44130;SDS011;29792;48.726;9.248;2024-01-11T00:26:12;45.65;;;24.45;;
44130;SDS011;29792;48.726;9.248;2024-01-11T00:28:37;45.38;;;25.52;;
44130;SDS011;29792;48.726;9.248;2024-01-11T00:31:03;47.17;;;25.55;;
44130;SDS011;29792;48.726;9.248;2024-01-11T00:33:28;54.10;;;27.33;;
44130;SDS011;29792;48.726;9.248;2024-01-11T00:35:53;40.58;;;25.65;;
44130;SDS011;29792;48.726;9.248;2024-01-11T00:38:19;45.05;;;23.27;;
44130;SDS011;29792;48.726;9.248;2024-01-11T00:40:44;47.55;;;24.90;;
44130;SDS011;29792;48.726;9.248;2024-01-11T00:43:09;38.85;;;22.35;;
44130;SDS011;29792;48.726;9.248;2024-01-11T00:45:35;44.03;;;24.55;;
44130;SDS011;29792;48.726;9.248;2024-01-11T00:48:00;42.88;;;24.83;;
44130;SDS011;29792;48.726;9.248;2024-01-11T00:50:25;40.90;;;22.60;;
44130;SDS011;29792;48.726;9.248;2024-01-11T00:52:50;45.75;;;24.90;;
44130;SDS011;29792;48.726;9.248;2024-01-11T00:55:16;37.67;;;23.98;;
44130;SDS011;29792;48.726;9.248;2024-01-11T00:57:41;40.22;;;22.38;;
44130;SDS011;29792;48.726;9.248;2024-01-11T01:00:06;44.25;;;25.85;;
44130;SDS011;29792;48.726;9.248;2024-01-11T01:02:32;43.78;;;24.35;;
44130;SDS011;29792;48.726;9.248;2024-01-11T01:04:57;42.58;;;24.33;;
44130;SDS011;29792;48.726;9.248;2024-01-11T01:07:23;40.47;;;22.92;;
44130;SDS011;29792;48.726;9.248;2024-01-11T01:09:48;41.67;;;24.70;;
44130;SDS011;29792;48.726;9.248;2024-01-11T01:12:13;39.40;;;23.70;;
44130;SDS011;29792;48.726;9.248;2024-01-11T01:14:38;41.08;;;23.75;;
44130;SDS011;29792;48.726;9.248;2024-01-11T01:17:04;45.55;;;23.60;;
44130;SDS011;29792;48.726;9.248;2024-01-11T01:19:30;43.10;;;25.70;;
44130;SDS011;29792;48.726;9.248;2024-01-11T01:21:55;45.08;;;23.70;;
44130;SDS011;29792;48.726;9.248;2024-01-11T01:24:20;46.58;;;23.02;;
44130;SDS011;29792;48.726;9.248;2024-01-11T01:26:46;41.65;;;23.42;;
44130;SDS011;29792;48.726;9.248;2024-01-11T01:29:11;42.42;;;23.13;;
44130;SDS011;29792;48.726;9.248;2024-01-11T01:31:36;42.85;;;24.33;;
44130;SDS011;29792;48.726;9.248;2024-01-11T01:34:03;44.17;;;24.45;;
44130;SDS011;29792;48.726;9.248;2024-01-11T01:36:28;44.17;;;26.27;;
44130;SDS011;29792;48.726;9.248;2024-01-11T01:38:54;44.95;;;24.70;;
44130;SDS011;29792;48.726;9.248;2024-01-11T01:41:19;43.55;;;24.05;;
44130;SDS011;29792;48.726;9.248;2024-01-11T01:43:44;44.33;;;22.80;;
44130;SDS011;29792;48.726;9.248;2024-01-11T01:46:09;42.30;;;23.10;;
44130;SDS011;29792;48.726;9.248;2024-01-11T01:48:35;43.35;;;23.20;;
44130;SDS011;29792;48.726;9.248;2024-01-11T01:51:01;44.33;;;25.88;;
44130;SDS011;29792;48.726;9.248;2024-01-11T01:53:28;39.63;;;22.27;;
44130;SDS011;29792;48.726;9.248;2024-01-11T01:55:54;45.83;;;25.33;;
44130;SDS011;29792;48.726;9.248;2024-01-11T01:58:19;50.72;;;24.02;;
44130;SDS011;29792;48.726;9.248;2024-01-11T02:00:46;44.92;;;25.00;;
44130;SDS011;29792;48.726;9.248;2024-01-11T02:03:14;37.72;;;22.33;;
44130;SDS011;29792;48.726;9.248;2024-01-11T02:05:40;40.00;;;22.17;;
44130;SDS011;29792;48.726;9.248;2024-01-11T02:08:06;49.47;;;25.77;;
44130;SDS011;29792;48.726;9.248;2024-01-11T02:10:35;32.83;;;23.08;;
44130;SDS011;29792;48.726;9.248;2024-01-11T02:13:03;41.50;;;24.00;;
44130;SDS011;29792;48.726;9.248;2024-01-11T02:15:29;40.58;;;24.70;;
44130;SDS011;29792;48.726;9.248;2024-01-11T02:17:55;45.10;;;25.38;;
44130;SDS011;29792;48.726;9.248;2024-01-11T02:20:20;41.55;;;23.17;;
44130;SDS011;29792;48.726;9.248;2024-01-11T02:22:46;47.13;;;25.45;;
44130;SDS011;29792;48.726;9.248;2024-01-11T02:25:15;43.53;;;24.85;;
44130;SDS011;29792;48.726;9.248;2024-01-11T02:27:50;48.92;;;25.27;;
44130;SDS011;29792;48.726;9.248;2024-01-11T02:30:16;31.48;;;18.60;;
44130;SDS011;29792;48.726;9.248;2024-01-11T02:32:48;46.45;;;24.15;;
44130;SDS011;29792;48.726;9.248;2024-01-11T02:35:14;43.15;;;24.65;;
44130;SDS011;29792;48.726;9.248;2024-01-11T02:37:40;42.75;;;24.00;;
44130;SDS011;29792;48.726;9.248;2024-01-11T02:40:06;40.50;;;21.73;;
44130;SDS011;29792;48.726;9.248;2024-01-11T02:42:33;39.40;;;23.65;;
44130;SDS011;29792;48.726;9.248;2024-01-11T02:44:58;39.33;;;23.92;;
44130;SDS011;29792;48.726;9.248;2024-01-11T02:47:24;38.13;;;23.45;;
44130;SDS011;29792;48.726;9.248;2024-01-11T02:49:49;42.90;;;23.35;;
44130;SDS011;29792;48.726;9.248;2024-01-11T02:52:14;38.80;;;24.58;;
44130;SDS011;29792;48.726;9.248;2024-01-11T02:54:40;39.05;;;25.23;;
44130;SDS011;29792;48.726;9.248;2024-01-11T02:57:05;43.08;;;26.33;;
44130;SDS011;29792;48.726;9.248;2024-01-11T02:59:30;39.95;;;24.58;;
44130;SDS011;29792;48.726;9.248;2024-01-11T03:01:56;49.53;;;25.30;;
44130;SDS011;29792;48.726;9.248;2024-01-11T03:04:21;42.90;;;26.35;;
44130;SDS011;29792;48.726;9.248;2024-01-11T03:06:46;41.65;;;24.55;;
44130;SDS011;29792;48.726;9.248;2024-01-11T03:09:12;52.38;;;24.92;;
44130;SDS011;29792;48.726;9.248;2024-01-11T03:11:37;41.83;;;23.13;;
44130;SDS011;29792;48.726;9.248;2024-01-11T03:14:02;43.65;;;24.23;;
44130;SDS011;29792;48.726;9.248;2024-01-11T03:16:28;44.33;;;22.92;;
44130;SDS011;29792;48.726;9.248;2024-01-11T03:18:53;42.05;;;26.35;;
44130;SDS011;29792;48.726;9.248;2024-01-11T03:21:18;38.92;;;24.35;;
44130;SDS011;29792;48.726;9.248;2024-01-11T03:23:44;43.63;;;24.90;;
44130;SDS011;29792;48.726;9.248;2024-01-11T03:26:13;50.38;;;26.88;;
44130;SDS011;29792;48.726;9.248;2024-01-11T03:28:39;46.40;;;25.30;;
44130;SDS011;29792;48.726;9.248;2024-01-11T03:31:04;47.83;;;25.90;;
44130;SDS011;29792;48.726;9.248;2024-01-11T03:33:29;48.50;;;27.73;;
44130;SDS011;29792;48.726;9.248;2024-01-11T03:35:55;43.08;;;24.90;;
44130;SDS011;29792;48.726;9.248;2024-01-11T03:38:20;46.75;;;25.10;;
44130;SDS011;29792;48.726;9.248;2024-01-11T03:40:46;43.80;;;25.17;;
44130;SDS011;29792;48.726;9.248;2024-01-11T03:43:11;43.13;;;25.15;;
44130;SDS011;29792;48.726;9.248;2024-01-11T03:45:36;44.80;;;26.40;;
44130;SDS011;29792;48.726;9.248;2024-01-11T03:48:02;51.08;;;26.58;;
44130;SDS011;29792;48.726;9.248;2024-01-11T03:50:27;48.70;;;25.83;;
44130;SDS011;29792;48.726;9.248;2024-01-11T03:52:52;49.33;;;25.23;;
44130;SDS011;29792;48.726;9.248;2024-01-11T03:55:17;41.25;;;24.10;;
44130;SDS011;29792;48.726;9.248;2024-01-11T03:57:43;44.83;;;25.35;;
44130;SDS011;29792;48.726;9.248;2024-01-11T04:00:09;42.70;;;23.88;;
44130;SDS011;29792;48.726;9.248;2024-01-11T04:02:35;47.45;;;27.80;;
44130;SDS011;29792;48.726;9.248;2024-01-11T04:05:00;43.90;;;23.60;;
44130;SDS011;29792;48.726;9.248;2024-01-11T04:07:26;56.83;;;24.73;;
44130;SDS011;29792;48.726;9.248;2024-01-11T04:09:51;44.60;;;26.38;;
44130;SDS011;29792;48.726;9.248;2024-01-11T04:12:16;38.55;;;23.75;;
44130;SDS011;29792;48.726;9.248;2024-01-11T04:14:42;46.10;;;24.75;;
44130;SDS011;29792;48.726;9.248;2024-01-11T04:17:07;44.53;;;24.30;;
44130;SDS011;29792;48.726;9.248;2024-01-11T04:19:32;44.33;;;25.30;;
44130;SDS011;29792;48.726;9.248;2024-01-11T04:21:58;49.00;;;29.00;;
44130;SDS011;29792;48.726;9.248;2024-01-11T04:24:23;47.88;;;28.83;;
44130;SDS011;29792;48.726;9.248;2024-01-11T04:26:48;45.67;;;27.02;;
44130;SDS011;29792;48.726;9.248;2024-01-11T04:29:13;51.53;;;27.60;;
44130;SDS011;29792;48.726;9.248;2024-01-11T04:31:38;44.65;;;24.40;;
44130;SDS011;29792;48.726;9.248;2024-01-11T04:34:04;46.28;;;27.42;;
44130;SDS011;29792;48.726;9.248;2024-01-11T04:36:29;48.65;;;24.00;;
44130;SDS011;29792;48.726;9.248;2024-01-11T04:38:54;47.20;;;26.05;;
44130;SDS011;29792;48.726;9.248;2024-01-11T04:41:19;44.42;;;24.80;;
44130;SDS011;29792;48.726;9.248;2024-01-11T04:43:45;48.00;;;25.77;;
44130;SDS011;29792;48.726;9.248;2024-01-11T04:48:42;47.65;;;26.42;;
44130;SDS011;29792;48.726;9.248;2024-01-11T04:51:08;47.25;;;28.30;;
44130;SDS011;29792;48.726;9.248;2024-01-11T04:53:35;46.22;;;24.88;;
44130;SDS011;29792;48.726;9.248;2024-01-11T04:56:01;42.40;;;24.25;;
44130;SDS011;29792;48.726;9.248;2024-01-11T04:58:27;53.42;;;26.70;;
44130;SDS011;29792;48.726;9.248;2024-01-11T05:00:53;48.90;;;25.08;;
44130;SDS011;29792;48.726;9.248;2024-01-11T05:03:18;43.85;;;27.13;;
44130;SDS011;29792;48.726;9.248;2024-01-11T05:05:43;44.67;;;24.92;;
44130;SDS011;29792;48.726;9.248;2024-01-11T05:08:08;51.42;;;27.98;;
44130;SDS011;29792;48.726;9.248;2024-01-11T05:10:35;47.33;;;25.40;;
44130;SDS011;29792;48.726;9.248;2024-01-11T05:13:00;52.40;;;27.90;;
44130;SDS011;29792;48.726;9.248;2024-01-11T05:15:26;48.63;;;24.10;;
44130;SDS011;29792;48.726;9.248;2024-01-11T05:17:51;45.33;;;25.27;;
44130;SDS011;29792;48.726;9.248;2024-01-11T05:20:17;48.20;;;27.98;;
44130;SDS011;29792;48.726;9.248;2024-01-11T05:22:42;42.88;;;24.02;;
44130;SDS011;29792;48.726;9.248;2024-01-11T05:25:07;44.55;;;26.38;;
44130;SDS011;29792;48.726;9.248;2024-01-11T05:27:33;50.25;;;26.80;;
44130;SDS011;29792;48.726;9.248;2024-01-11T05:29:58;48.83;;;25.83;;
44130;SDS011;29792;48.726;9.248;2024-01-11T05:32:23;42.72;;;24.85;;
44130;SDS011;29792;48.726;9.248;2024-01-11T05:34:49;45.30;;;25.92;;
44130;SDS011;29792;48.726;9.248;2024-01-11T05:37:14;47.08;;;25.80;;
44130;SDS011;29792;48.726;9.248;2024-01-11T05:39:39;40.45;;;23.80;;
44130;SDS011;29792;48.726;9.248;2024-01-11T05:42:05;48.42;;;26.38;;
44130;SDS011;29792;48.726;9.248;2024-01-11T05:44:31;50.85;;;24.45;;
44130;SDS011;29792;48.726;9.248;2024-01-11T05:46:56;41.72;;;25.60;;
44130;SDS011;29792;48.726;9.248;2024-01-11T05:49:22;44.38;;;24.63;;
44130;SDS011;29792;48.726;9.248;2024-01-11T05:51:47;44.25;;;24.85;;
44130;SDS011;29792;48.726;9.248;2024-01-11T05:54:12;46.30;;;25.10;;
44130;SDS011;29792;48.726;9.248;2024-01-11T05:56:37;47.28;;;24.13;;
44130;SDS011;29792;48.726;9.248;2024-01-11T05:59:03;45.45;;;26.13;;
44130;SDS011;29792;48.726;9.248;2024-01-11T06:01:28;51.60;;;25.35;;
44130;SDS011;29792;48.726;9.248;2024-01-11T06:03:53;48.65;;;25.27;;
44130;SDS011;29792;48.726;9.248;2024-01-11T06:06:20;43.13;;;25.05;;
44130;SDS011;29792;48.726;9.248;2024-01-11T06:08:45;47.20;;;26.80;;
44130;SDS011;29792;48.726;9.248;2024-01-11T06:11:10;46.30;;;26.25;;
44130;SDS011;29792;48.726;9.248;2024-01-11T06:13:36;45.05;;;24.05;;
44130;SDS011;29792;48.726;9.248;2024-01-11T06:16:01;47.08;;;23.90;;
44130;SDS011;29792;48.726;9.248;2024-01-11T06:18:26;43.75;;;24.27;;
44130;SDS011;29792;48.726;9.248;2024-01-11T06:20:51;45.67;;;25.98;;
44130;SDS011;29792;48.726;9.248;2024-01-11T06:23:17;46.35;;;26.83;;
44130;SDS011;29792;48.726;9.248;2024-01-11T06:25:43;42.55;;;26.80;;
44130;SDS011;29792;48.726;9.248;2024-01-11T06:28:08;42.83;;;22.88;;
44130;SDS011;29792;48.726;9.248;2024-01-11T06:30:34;46.00;;;25.10;;
44130;SDS011;29792;48.726;9.248;2024-01-11T06:33:00;45.58;;;26.13;;
44130;SDS011;29792;48.726;9.248;2024-01-11T06:35:25;46.72;;;24.60;;
44130;SDS011;29792;48.726;9.248;2024-01-11T06:37:50;45.70;;;23.48;;
44130;SDS011;29792;48.726;9.248;2024-01-11T06:40:15;48.45;;;26.40;;
44130;SDS011;29792;48.726;9.248;2024-01-11T06:42:41;50.70;;;26.17;;
44130;SDS011;29792;48.726;9.248;2024-01-11T06:45:06;43.70;;;25.10;;
44130;SDS011;29792;48.726;9.248;2024-01-11T06:47:33;55.45;;;29.77;;
44130;SDS011;29792;48.726;9.248;2024-01-11T06:49:58;46.30;;;25.77;;
44130;SDS011;29792;48.726;9.248;2024-01-11T06:52:24;43.85;;;24.95;;
44130;SDS011;29792;48.726;9.248;2024-01-11T06:54:50;51.35;;;25.48;;
44130;SDS011;29792;48.726;9.248;2024-01-11T06:57:15;50.75;;;25.13;;
44130;SDS011;29792;48.726;9.248;2024-01-11T06:59:41;47.85;;;24.95;;
44130;SDS011;29792;48.726;9.248;2024-01-11T07:02:06;51.30;;;29.10;;
44130;SDS011;29792;48.726;9.248;2024-01-11T07:04:31;55.65;;;27.55;;
44130;SDS011;29792;48.726;9.248;2024-01-11T07:06:56;45.25;;;26.02;;
44130;SDS011;29792;48.726;9.248;2024-01-11T07:09:22;49.00;;;25.67;;
44130;SDS011;29792;48.726;9.248;2024-01-11T07:11:47;47.15;;;26.92;;
44130;SDS011;29792;48.726;9.248;2024-01-11T07:14:12;51.90;;;24.77;;
44130;SDS011;29792;48.726;9.248;2024-01-11T07:16:37;44.92;;;25.60;;
44130;SDS011;29792;48.726;9.248;2024-01-11T07:19:03;43.88;;;27.65;;
44130;SDS011;29792;48.726;9.248;2024-01-11T07:21:28;49.42;;;26.05;;
44130;SDS011;29792;48.726;9.248;2024-01-11T07:23:57;47.83;;;24.58;;
44130;SDS011;29792;48.726;9.248;2024-01-11T07:26:23;44.25;;;25.73;;
44130;SDS011;29792;48.726;9.248;2024-01-11T07:28:49;51.78;;;25.27;;
44130;SDS011;29792;48.726;9.248;2024-01-11T07:31:14;44.60;;;27.23;;
44130;SDS011;29792;48.726;9.248;2024-01-11T07:33:40;53.85;;;28.15;;
44130;SDS011;29792;48.726;9.248;2024-01-11T07:36:05;47.92;;;27.55;;
44130;SDS011;29792;48.726;9.248;2024-01-11T07:38:31;44.63;;;24.52;;
44130;SDS011;29792;48.726;9.248;2024-01-11T07:40:56;49.30;;;26.30;;
44130;SDS011;29792;48.726;9.248;2024-01-11T07:43:21;47.72;;;25.73;;
44130;SDS011;29792;48.726;9.248;2024-01-11T07:45:47;52.20;;;27.10;;
44130;SDS011;29792;48.726;9.248;2024-01-11T07:48:12;55.85;;;27.38;;
44130;SDS011;29792;48.726;9.248;2024-01-11T07:50:38;48.90;;;27.42;;
44130;SDS011;29792;48.726;9.248;2024-01-11T07:53:03;49.38;;;27.52;;
44130;SDS011;29792;48.726;9.248;2024-01-11T07:55:28;52.97;;;28.27;;
44130;SDS011;29792;48.726;9.248;2024-01-11T07:57:53;45.08;;;24.67;;
44130;SDS011;29792;48.726;9.248;2024-01-11T08:00:19;52.22;;;26.85;;
44130;SDS011;29792;48.726;9.248;2024-01-11T08:02:44;49.42;;;28.95;;
44130;SDS011;29792;48.726;9.248;2024-01-11T08:05:10;49.95;;;30.10;;
44130;SDS011;29792;48.726;9.248;2024-01-11T08:07:35;46.05;;;29.15;;
44130;SDS011;29792;48.726;9.248;2024-01-11T08:10:00;45.72;;;27.10;;
44130;SDS011;29792;48.726;9.248;2024-01-11T08:12:26;46.85;;;25.33;;
44130;SDS011;29792;48.726;9.248;2024-01-11T08:14:51;52.63;;;29.42;;
44130;SDS011;29792;48.726;9.248;2024-01-11T08:17:16;38.83;;;26.33;;
44130;SDS011;29792;48.726;9.248;2024-01-11T08:19:42;43.95;;;24.95;;
44130;SDS011;29792;48.726;9.248;2024-01-11T08:22:07;44.15;;;25.05;;
44130;SDS011;29792;48.726;9.248;2024-01-11T08:24:33;44.45;;;25.88;;
44130;SDS011;29792;48.726;9.248;2024-01-11T08:27:00;51.83;;;27.05;;
44130;SDS011;29792;48.726;9.248;2024-01-11T08:29:25;42.60;;;25.15;;
44130;SDS011;29792;48.726;9.248;2024-01-11T08:31:50;48.25;;;25.33;;
44130;SDS011;29792;48.726;9.248;2024-01-11T08:34:16;47.55;;;27.60;;
44130;SDS011;29792;48.726;9.248;2024-01-11T08:36:41;46.38;;;27.00;;
44130;SDS011;29792;48.726;9.248;2024-01-11T08:39:07;43.42;;;26.10;;
44130;SDS011;29792;48.726;9.248;2024-01-11T08:41:33;46.58;;;26.65;;
44130;SDS011;29792;48.726;9.248;2024-01-11T08:44:05;44.42;;;27.20;;
44130;SDS011;29792;48.726;9.248;2024-01-11T08:46:31;46.65;;;29.10;;
44130;SDS011;29792;48.726;9.248;2024-01-11T08:48:58;50.78;;;28.33;;
44130;SDS011;29792;48.726;9.248;2024-01-11T08:51:24;43.42;;;27.48;;
44130;SDS011;29792;48.726;9.248;2024-01-11T08:53:49;44.13;;;26.27;;
44130;SDS011;29792;48.726;9.248;2024-01-11T08:56:14;40.03;;;26.00;;
44130;SDS011;29792;48.726;9.248;2024-01-11T08:58:41;41.85;;;29.75;;
44130;SDS011;29792;48.726;9.248;2024-01-11T09:01:07;45.63;;;30.73;;
44130;SDS011;29792;48.726;9.248;2024-01-11T09:03:33;46.28;;;29.08;;
44130;SDS011;29792;48.726;9.248;2024-01-11T09:05:59;41.70;;;26.67;;
44130;SDS011;29792;48.726;9.248;2024-01-11T09:08:24;42.75;;;27.85;;
44130;SDS011;29792;48.726;9.248;2024-01-11T09:10:49;42.42;;;27.83;;
44130;SDS011;29792;48.726;9.248;2024-01-11T09:13:15;42.25;;;27.42;;
44130;SDS011;29792;48.726;9.248;2024-01-11T09:15:43;43.20;;;27.95;;
44130;SDS011;29792;48.726;9.248;2024-01-11T09:18:08;41.80;;;27.60;;
44130;SDS011;29792;48.726;9.248;2024-01-11T09:20:33;43.30;;;27.15;;
44130;SDS011;29792;48.726;9.248;2024-01-11T09:23:00;41.70;;;27.42;;
44130;SDS011;29792;48.726;9.248;2024-01-11T09:25:28;45.65;;;29.27;;
44130;SDS011;29792;48.726;9.248;2024-01-11T09:27:53;43.75;;;28.27;;
44130;SDS011;29792;48.726;9.248;2024-01-11T09:30:19;44.78;;;27.80;;
44130;SDS011;29792;48.726;9.248;2024-01-11T09:32:44;44.13;;;29.00;;
44130;SDS011;29792;48.726;9.248;2024-01-11T09:35:09;43.17;;;27.75;;
44130;SDS011;29792;48.726;9.248;2024-01-11T09:37:35;40.80;;;29.92;;
44130;SDS011;29792;48.726;9.248;2024-01-11T09:40:01;43.85;;;29.33;;
44130;SDS011;29792;48.726;9.248;2024-01-11T09:42:26;42.05;;;27.48;;
44130;SDS011;29792;48.726;9.248;2024-01-11T09:44:52;41.00;;;26.88;;
44130;SDS011;29792;48.726;9.248;2024-01-11T09:47:20;44.17;;;28.20;;
44130;SDS011;29792;48.726;9.248;2024-01-11T09:49:46;38.35;;;27.65;;
44130;SDS011;29792;48.726;9.248;2024-01-11T09:52:15;44.85;;;27.73;;
44130;SDS011;29792;48.726;9.248;2024-01-11T09:54:44;42.47;;;28.42;;
44130;SDS011;29792;48.726;9.248;2024-01-11T09:57:10;42.60;;;28.45;;
44130;SDS011;29792;48.726;9.248;2024-01-11T09:59:36;44.75;;;30.15;;
44130;SDS011;29792;48.726;9.248;2024-01-11T10:02:02;41.60;;;29.05;;
44130;SDS011;29792;48.726;9.248;2024-01-11T10:04:27;42.78;;;30.73;;
44130;SDS011;29792;48.726;9.248;2024-01-11T10:06:53;45.22;;;29.70;;
44130;SDS011;29792;48.726;9.248;2024-01-11T10:09:20;45.35;;;29.10;;
44130;SDS011;29792;48.726;9.248;2024-01-11T10:11:45;45.53;;;28.80;;
44130;SDS011;29792;48.726;9.248;2024-01-11T10:14:12;47.33;;;30.77;;
44130;SDS011;29792;48.726;9.248;2024-01-11T10:16:37;41.90;;;28.45;;
44130;SDS011;29792;48.726;9.248;2024-01-11T10:19:02;45.33;;;29.60;;
44130;SDS011;29792;48.726;9.248;2024-01-11T10:21:28;49.08;;;31.92;;
44130;SDS011;29792;48.726;9.248;2024-01-11T10:23:55;48.92;;;29.08;;
44130;SDS011;29792;48.726;9.248;2024-01-11T10:26:22;39.28;;;24.83;;
44130;SDS011;29792;48.726;9.248;2024-01-11T10:28:47;44.10;;;29.27;;
44130;SDS011;29792;48.726;9.248;2024-01-11T10:31:13;49.03;;;31.00;;
44130;SDS011;29792;48.726;9.248;2024-01-11T10:33:43;48.20;;;30.23;;
44130;SDS011;29792;48.726;9.248;2024-01-11T10:36:10;46.67;;;29.17;;
44130;SDS011;29792;48.726;9.248;2024-01-11T10:38:36;41.35;;;28.27;;
44130;SDS011;29792;48.726;9.248;2024-01-11T10:41:06;41.15;;;27.05;;
44130;SDS011;29792;48.726;9.248;2024-01-11T10:43:32;38.38;;;26.58;;
44130;SDS011;29792;48.726;9.248;2024-01-11T10:46:02;43.88;;;27.75;;
44130;SDS011;29792;48.726;9.248;2024-01-11T10:48:29;39.33;;;25.52;;
44130;SDS011;29792;48.726;9.248;2024-01-11T10:50:57;39.13;;;24.88;;
44130;SDS011;29792;48.726;9.248;2024-01-11T10:53:41;41.65;;;28.20;;
44130;SDS011;29792;48.726;9.248;2024-01-11T10:56:10;38.55;;;27.38;;
44130;SDS011;29792;48.726;9.248;2024-01-11T10:58:42;37.80;;;26.70;;
44130;SDS011;29792;48.726;9.248;2024-01-11T11:01:12;41.80;;;27.48;;
44130;SDS011;29792;48.726;9.248;2024-01-11T11:03:38;38.45;;;25.33;;
44130;SDS011;29792;48.726;9.248;2024-01-11T11:06:05;37.50;;;25.02;;
44130;SDS011;29792;48.726;9.248;2024-01-11T11:08:31;40.88;;;27.65;;
44130;SDS011;29792;48.726;9.248;2024-01-11T11:10:58;34.63;;;25.65;;
44130;SDS011;29792;48.726;9.248;2024-01-11T11:13:26;37.53;;;26.77;;
44130;SDS011;29792;48.726;9.248;2024-01-11T11:15:52;40.50;;;27.55;;
44130;SDS011;29792;48.726;9.248;2024-01-11T11:18:18;33.55;;;27.33;;
44130;SDS011;29792;48.726;9.248;2024-01-11T11:20:44;36.67;;;27.58;;
44130;SDS011;29792;48.726;9.248;2024-01-11T11:23:11;34.17;;;25.63;;
44130;SDS011;29792;48.726;9.248;2024-01-11T11:25:41;36.58;;;26.00;;
44130;SDS011;29792;48.726;9.248;2024-01-11T11:28:07;38.75;;;26.95;;
44130;SDS011;29792;48.726;9.248;2024-01-11T11:30:33;36.22;;;25.50;;
44130;SDS011;29792;48.726;9.248;2024-01-11T11:33:18;38.50;;;28.55;;
44130;SDS011;29792;48.726;9.248;2024-01-11T11:35:48;35.55;;;25.83;;
44130;SDS011;29792;48.726;9.248;2024-01-11T11:38:20;35.72;;;26.55;;
44130;SDS011;29792;48.726;9.248;2024-01-11T11:40:47;36.42;;;26.83;;
44130;SDS011;29792;48.726;9.248;2024-01-11T11:43:14;39.33;;;27.90;;
44130;SDS011;29792;48.726;9.248;2024-01-11T11:45:41;38.70;;;26.85;;
44130;SDS011;29792;48.726;9.248;2024-01-11T11:51:01;34.10;;;25.70;;
44130;SDS011;29792;48.726;9.248;2024-01-11T11:53:34;40.00;;;27.60;;
44130;SDS011;29792;48.726;9.248;2024-01-11T11:56:00;39.78;;;27.15;;
44130;SDS011;29792;48.726;9.248;2024-01-11T11:58:27;33.65;;;26.33;;
44130;SDS011;29792;48.726;9.248;2024-01-11T12:00:54;35.20;;;27.55;;
44130;SDS011;29792;48.726;9.248;2024-01-11T12:03:20;40.22;;;27.20;;
44130;SDS011;29792;48.726;9.248;2024-01-11T12:05:45;36.38;;;27.20;;
44130;SDS011;29792;48.726;9.248;2024-01-11T12:08:10;40.65;;;26.33;;
44130;SDS011;29792;48.726;9.248;2024-01-11T12:10:36;44.30;;;30.10;;
44130;SDS011;29792;48.726;9.248;2024-01-11T12:13:01;40.35;;;27.42;;
44130;SDS011;29792;48.726;9.248;2024-01-11T12:15:27;41.83;;;30.52;;
44130;SDS011;29792;48.726;9.248;2024-01-11T12:17:57;39.33;;;27.13;;
44130;SDS011;29792;48.726;9.248;2024-01-11T12:20:23;37.65;;;28.90;;
44130;SDS011;29792;48.726;9.248;2024-01-11T12:22:49;42.35;;;28.58;;
44130;SDS011;29792;48.726;9.248;2024-01-11T12:25:14;39.00;;;26.35;;
44130;SDS011;29792;48.726;9.248;2024-01-11T12:27:39;39.00;;;28.20;;
44130;SDS011;29792;48.726;9.248;2024-01-11T12:30:05;42.90;;;27.30;;
44130;SDS011;29792;48.726;9.248;2024-01-11T12:32:32;43.97;;;28.70;;
44130;SDS011;29792;48.726;9.248;2024-01-11T12:34:57;40.88;;;27.55;;
44130;SDS011;29792;48.726;9.248;2024-01-11T12:37:23;37.42;;;28.58;;
44130;SDS011;29792;48.726;9.248;2024-01-11T12:39:48;38.55;;;26.85;;
44130;SDS011;29792;48.726;9.248;2024-01-11T12:42:14;41.47;;;28.55;;
44130;SDS011;29792;48.726;9.248;2024-01-11T12:44:39;38.45;;;26.38;;
44130;SDS011;29792;48.726;9.248;2024-01-11T12:47:05;40.30;;;27.08;;
44130;SDS011;29792;48.726;9.248;2024-01-11T12:49:32;39.80;;;27.50;;
44130;SDS011;29792;48.726;9.248;2024-01-11T12:51:58;41.25;;;27.80;;
44130;SDS011;29792;48.726;9.248;2024-01-11T12:54:23;36.67;;;26.55;;
44130;SDS011;29792;48.726;9.248;2024-01-11T12:56:48;41.30;;;26.83;;
44130;SDS011;29792;48.726;9.248;2024-01-11T12:59:15;44.83;;;27.15;;
44130;SDS011;29792;48.726;9.248;2024-01-11T13:01:41;45.53;;;26.80;;
44130;SDS011;29792;48.726;9.248;2024-01-11T13:04:10;45.55;;;28.88;;
44130;SDS011;29792;48.726;9.248;2024-01-11T13:06:35;36.33;;;26.45;;
44130;SDS011;29792;48.726;9.248;2024-01-11T13:09:01;40.28;;;25.75;;
44130;SDS011;29792;48.726;9.248;2024-01-11T13:11:27;39.28;;;27.73;;
44130;SDS011;29792;48.726;9.248;2024-01-11T13:13:53;36.83;;;26.75;;
44130;SDS011;29792;48.726;9.248;2024-01-11T13:16:18;43.17;;;28.70;;
44130;SDS011;29792;48.726;9.248;2024-01-11T13:18:44;47.20;;;29.85;;
44130;SDS011;29792;48.726;9.248;2024-01-11T13:21:10;47.40;;;28.85;;
44130;SDS011;29792;48.726;9.248;2024-01-11T13:23:37;41.60;;;28.25;;
44130;SDS011;29792;48.726;9.248;2024-01-11T13:26:03;40.33;;;28.10;;
44130;SDS011;29792;48.726;9.248;2024-01-11T13:28:29;43.83;;;29.20;;
44130;SDS011;29792;48.726;9.248;2024-01-11T13:30:55;41.33;;;27.85;;
44130;SDS011;29792;48.726;9.248;2024-01-11T13:33:20;46.42;;;27.95;;
44130;SDS011;29792;48.726;9.248;2024-01-11T13:35:47;43.55;;;26.67;;
44130;SDS011;29792;48.726;9.248;2024-01-11T13:38:13;38.58;;;25.98;;
44130;SDS011;29792;48.726;9.248;2024-01-11T13:40:38;45.78;;;30.30;;
44130;SDS011;29792;48.726;9.248;2024-01-11T13:43:04;39.72;;;27.23;;
44130;SDS011;29792;48.726;9.248;2024-01-11T13:45:30;40.17;;;27.00;;
44130;SDS011;29792;48.726;9.248;2024-01-11T13:47:55;46.78;;;30.48;;
44130;SDS011;29792;48.726;9.248;2024-01-11T13:50:21;40.38;;;27.65;;
44130;SDS011;29792;48.726;9.248;2024-01-11T13:52:47;43.42;;;30.30;;
44130;SDS011;29792;48.726;9.248;2024-01-11T13:55:12;43.15;;;28.38;;
44130;SDS011;29792;48.726;9.248;2024-01-11T13:57:38;44.00;;;30.50;;
44130;SDS011;29792;48.726;9.248;2024-01-11T14:00:04;42.25;;;28.38;;
44130;SDS011;29792;48.726;9.248;2024-01-11T14:02:30;43.17;;;29.92;;
44130;SDS011;29792;48.726;9.248;2024-01-11T14:04:55;43.00;;;29.73;;
44130;SDS011;29792;48.726;9.248;2024-01-11T14:07:21;44.15;;;29.58;;
44130;SDS011;29792;48.726;9.248;2024-01-11T14:09:46;40.63;;;29.77;;
44130;SDS011;29792;48.726;9.248;2024-01-11T14:12:11;41.72;;;28.20;;
44130;SDS011;29792;48.726;9.248;2024-01-11T14:14:37;42.75;;;29.70;;
44130;SDS011;29792;48.726;9.248;2024-01-11T14:17:02;42.90;;;27.13;;
44130;SDS011;29792;48.726;9.248;2024-01-11T14:19:27;41.90;;;27.42;;